Time;durP1;ratioP1;P1;durP2;ratioP2;P2;SDS_P1;SDS_P2;PMS_P1;PMS_P2;Temp;Humidity;BMP_temperature;BMP_pressure;BME280_temperature;BME280_humidity;BME280_pressure;Samples;Min_cycle;Max_cycle;Signal;HPM_P1;HPM_P2
2021/06/26 00:01:07;;;;;;;21.00;18.67;;;16.90;99.90;;;;;;4780581;29;20126;-76
2021/06/26 00:03:34;;;;;;;21.75;18.85;;;16.90;99.90;;;;;;4778644;29;20047;-75
2021/06/26 00:06:00;;;;;;;22.27;19.40;;;16.90;99.90;;;;;;4774762;29;20055;-75
2021/06/26 00:08:28;;;;;;;22.65;19.58;;;16.80;99.90;;;;;;4776356;29;20043;-75
2021/06/26 00:10:56;;;;;;;21.70;19.35;;;16.80;99.90;;;;;;4771514;29;20070;-75
2021/06/26 00:13:23;;;;;;;22.77;19.65;;;16.70;99.90;;;;;;4773662;29;20039;-76
2021/06/26 00:15:50;;;;;;;21.98;18.95;;;16.70;99.90;;;;;;4773669;29;20058;-76
2021/06/26 00:18:16;;;;;;;23.00;20.40;;;16.60;99.90;;;;;;4746970;29;20043;-76
2021/06/26 00:20:44;;;;;;;22.33;19.63;;;16.60;99.90;;;;;;4773323;29;20043;-76
2021/06/26 00:23:11;;;;;;;22.40;20.02;;;16.60;99.90;;;;;;4779162;29;20065;-75
2021/06/26 00:25:39;;;;;;;24.00;19.45;;;16.60;99.90;;;;;;4775117;29;20035;-75
2021/06/26 00:28:05;;;;;;;20.92;17.80;;;16.50;99.90;;;;;;4777996;29;20051;-76
2021/06/26 00:30:32;;;;;;;21.77;18.27;;;16.50;99.90;;;;;;4776714;29;20038;-75
2021/06/26 00:32:58;;;;;;;23.02;20.00;;;16.40;99.90;;;;;;4790185;29;20613;-76
2021/06/26 00:35:25;;;;;;;22.33;18.90;;;16.30;99.90;;;;;;4781427;29;20062;-78
2021/06/26 00:37:52;;;;;;;23.42;19.85;;;16.30;99.90;;;;;;4764817;29;20052;-77
2021/06/26 00:40:18;;;;;;;20.33;17.85;;;16.30;99.90;;;;;;4751973;29;20052;-75
2021/06/26 00:42:46;;;;;;;25.52;20.27;;;16.20;99.90;;;;;;4779267;29;20075;-76
2021/06/26 00:45:14;;;;;;;21.83;18.67;;;16.10;99.90;;;;;;4778859;29;20629;-78
2021/06/26 00:47:41;;;;;;;21.83;18.38;;;16.10;99.90;;;;;;4764136;29;20054;-76
2021/06/26 00:50:14;;;;;;;22.30;18.98;;;16.00;99.90;;;;;;4778321;29;20553;-77
2021/06/26 00:52:41;;;;;;;23.95;18.67;;;16.00;99.90;;;;;;4767034;29;20055;-76
2021/06/26 00:55:08;;;;;;;21.10;17.85;;;16.00;99.90;;;;;;4779964;29;20039;-75
2021/06/26 00:57:36;;;;;;;22.23;18.90;;;15.90;99.90;;;;;;4779104;29;20059;-75
2021/06/26 01:00:05;;;;;;;22.48;18.60;;;15.90;99.90;;;;;;4777714;29;20039;-76
2021/06/26 01:02:31;;;;;;;23.38;20.38;;;15.90;99.90;;;;;;4779731;29;20047;-76
2021/06/26 01:04:58;;;;;;;23.50;20.83;;;15.80;99.90;;;;;;4776310;29;20043;-75
2021/06/26 01:07:25;;;;;;;24.27;20.10;;;15.80;99.90;;;;;;4779217;29;20051;-76
2021/06/26 01:09:51;;;;;;;25.67;20.98;;;15.70;99.90;;;;;;4757701;29;20491;-75
2021/06/26 01:12:19;;;;;;;23.05;19.55;;;15.70;99.90;;;;;;4776598;29;20109;-76
2021/06/26 01:14:49;;;;;;;23.85;19.42;;;15.60;99.90;;;;;;4775771;29;20062;-75
2021/06/26 01:17:15;;;;;;;24.38;19.88;;;15.70;99.90;;;;;;4778999;29;20062;-75
2021/06/26 01:19:49;;;;;;;28.30;20.80;;;15.60;99.90;;;;;;4777829;29;20507;-75
2021/06/26 01:22:21;;;;;;;23.25;18.85;;;15.60;99.90;;;;;;4773809;29;20420;-75
2021/06/26 01:24:51;;;;;;;23.17;20.70;;;15.60;99.90;;;;;;4760075;29;20050;-74
2021/06/26 01:27:18;;;;;;;25.92;20.50;;;15.60;99.90;;;;;;4777619;29;20315;-75
2021/06/26 01:29:52;;;;;;;24.73;21.38;;;15.50;99.90;;;;;;4774740;29;20625;-75
2021/06/26 01:32:20;;;;;;;25.67;20.77;;;15.50;99.90;;;;;;4774040;29;20420;-76
2021/06/26 01:34:48;;;;;;;25.95;21.90;;;15.50;99.90;;;;;;4772771;29;20069;-76
2021/06/26 01:37:15;;;;;;;25.05;21.65;;;15.50;99.90;;;;;;4775276;29;20044;-76
2021/06/26 01:39:42;;;;;;;26.15;21.40;;;15.40;99.90;;;;;;4759776;29;20074;-76
2021/06/26 01:42:09;;;;;;;27.48;22.27;;;15.40;99.90;;;;;;4776332;29;20039;-75
2021/06/26 01:44:35;;;;;;;26.55;22.15;;;15.40;99.90;;;;;;4775979;29;20043;-75
2021/06/26 01:47:05;;;;;;;25.90;21.55;;;15.40;99.90;;;;;;4745536;29;20522;-76
2021/06/26 01:49:32;;;;;;;29.58;22.15;;;15.40;99.90;;;;;;4778626;29;20055;-76
2021/06/26 01:51:59;;;;;;;27.63;22.13;;;15.30;99.90;;;;;;4749493;29;20050;-76
2021/06/26 01:54:26;;;;;;;25.83;21.67;;;15.30;99.90;;;;;;4778482;29;20484;-76
2021/06/26 01:56:52;;;;;;;25.35;21.13;;;15.30;99.90;;;;;;4772461;29;20063;-76
2021/06/26 01:59:18;;;;;;;25.13;19.70;;;15.30;99.90;;;;;;4759871;29;20046;-76
2021/06/26 02:01:45;;;;;;;28.02;21.73;;;15.30;99.90;;;;;;4772444;29;20058;-75
2021/06/26 02:04:11;;;;;;;23.90;20.25;;;15.30;99.90;;;;;;4760498;29;20395;-76
2021/06/26 02:06:38;;;;;;;26.35;21.30;;;15.30;99.90;;;;;;4773917;29;20047;-76
2021/06/26 02:09:07;;;;;;;25.45;19.70;;;15.30;99.90;;;;;;4775287;29;20039;-75
2021/06/26 02:11:34;;;;;;;23.20;19.13;;;15.30;99.90;;;;;;4777848;29;20066;-77
2021/06/26 02:14:01;;;;;;;25.98;20.05;;;15.30;99.90;;;;;;4777761;29;20054;-76
2021/06/26 02:16:27;;;;;;;25.00;20.25;;;15.30;99.90;;;;;;4779329;29;20050;-77
2021/06/26 02:18:54;;;;;;;22.23;18.55;;;15.20;99.90;;;;;;4774728;29;20625;-77
2021/06/26 02:21:21;;;;;;;24.08;19.17;;;15.20;99.90;;;;;;4775912;29;20047;-76
2021/06/26 02:23:47;;;;;;;24.55;19.30;;;15.20;99.90;;;;;;4760504;29;20048;-75
2021/06/26 02:26:14;;;;;;;21.60;19.02;;;15.20;99.90;;;;;;4761633;29;20051;-74
2021/06/26 02:28:40;;;;;;;25.15;20.85;;;15.20;99.90;;;;;;4777517;29;20039;-75
2021/06/26 02:31:07;;;;;;;20.92;17.85;;;15.20;99.90;;;;;;4777115;29;20050;-75
2021/06/26 02:33:33;;;;;;;22.35;19.55;;;15.20;99.90;;;;;;4746686;29;20051;-75
2021/06/26 02:36:00;;;;;;;24.55;19.45;;;15.20;99.90;;;;;;4777908;29;20047;-75
2021/06/26 02:38:26;;;;;;;24.58;20.60;;;15.20;99.90;;;;;;4775433;29;20063;-75
2021/06/26 02:40:53;;;;;;;24.48;19.30;;;15.20;99.90;;;;;;4778419;29;20490;-75
2021/06/26 02:43:19;;;;;;;28.25;21.52;;;15.20;99.90;;;;;;4760686;29;20059;-76
2021/06/26 02:45:46;;;;;;;27.85;23.13;;;15.20;99.90;;;;;;4778310;29;20491;-75
2021/06/26 02:48:14;;;;;;;26.73;21.88;;;15.20;99.90;;;;;;4776970;29;20054;-75
2021/06/26 02:50:41;;;;;;;23.77;19.75;;;15.20;99.90;;;;;;4779744;29;20047;-75
2021/06/26 02:53:08;;;;;;;23.70;20.38;;;15.20;99.90;;;;;;4777971;29;20050;-76
2021/06/26 02:55:35;;;;;;;25.90;20.90;;;15.20;99.90;;;;;;4774878;29;20055;-75
2021/06/26 02:58:02;;;;;;;23.95;19.98;;;15.20;99.90;;;;;;4773664;29;20062;-73
2021/06/26 03:00:28;;;;;;;24.02;19.75;;;15.10;99.90;;;;;;4774249;29;20055;-75
2021/06/26 03:02:55;;;;;;;27.00;21.30;;;15.20;99.90;;;;;;4789765;29;20075;-75
2021/06/26 03:05:21;;;;;;;24.05;19.92;;;15.20;99.90;;;;;;4760055;29;20050;-75
2021/06/26 03:07:50;;;;;;;24.63;19.83;;;15.20;99.90;;;;;;4774116;29;20055;-76
2021/06/26 03:10:18;;;;;;;23.25;19.10;;;15.10;99.90;;;;;;4779399;29;20503;-76
2021/06/26 03:12:45;;;;;;;22.75;20.13;;;15.10;99.90;;;;;;4775712;29;20906;-75
2021/06/26 03:15:12;;;;;;;28.30;20.40;;;15.20;99.90;;;;;;4780144;29;20047;-75
2021/06/26 03:17:39;;;;;;;27.95;22.40;;;15.20;99.90;;;;;;4774447;29;20146;-75
2021/06/26 03:20:07;;;;;;;27.15;23.17;;;15.30;99.90;;;;;;4778838;29;20502;-76
2021/06/26 03:22:33;;;;;;;27.58;21.83;;;15.30;99.90;;;;;;4761905;29;20059;-75
2021/06/26 03:25:00;;;;;;;27.75;22.20;;;15.40;99.90;;;;;;4780150;29;20045;-75
2021/06/26 03:27:27;;;;;;;25.38;20.38;;;15.40;99.90;;;;;;4778271;29;20066;-77
2021/06/26 03:29:53;;;;;;;24.95;19.40;;;15.50;99.90;;;;;;4778608;29;20062;-75
2021/06/26 03:32:20;;;;;;;25.35;20.88;;;15.50;99.90;;;;;;4782437;29;20047;-75
2021/06/26 03:34:46;;;;;;;26.65;20.05;;;15.60;99.90;;;;;;4778607;29;20448;-76
2021/06/26 03:37:13;;;;;;;26.40;21.42;;;15.60;99.90;;;;;;4750930;29;20921;-75
2021/06/26 03:39:39;;;;;;;22.25;19.15;;;15.70;99.90;;;;;;4763721;29;20043;-75
2021/06/26 03:42:06;;;;;;;25.23;21.08;;;15.70;99.90;;;;;;4765295;29;20510;-75
2021/06/26 03:44:33;;;;;;;23.25;20.08;;;15.80;99.90;;;;;;4780147;29;20047;-75
2021/06/26 03:46:59;;;;;;;27.67;21.10;;;15.80;99.90;;;;;;4775411;29;20043;-75
2021/06/26 03:49:28;;;;;;;23.00;19.25;;;15.90;99.90;;;;;;4774011;29;20042;-76
2021/06/26 03:51:54;;;;;;;25.77;20.25;;;15.90;99.90;;;;;;4775268;29;20047;-76
2021/06/26 03:54:21;;;;;;;23.10;20.17;;;16.00;99.90;;;;;;4766103;29;20054;-76
2021/06/26 03:56:47;;;;;;;25.67;20.73;;;16.00;99.90;;;;;;4763668;29;20062;-76
2021/06/26 03:59:14;;;;;;;24.75;20.15;;;16.10;99.90;;;;;;4779088;29;20039;-76
2021/06/26 04:01:40;;;;;;;24.08;21.35;;;16.10;99.90;;;;;;4763684;29;20814;-76
2021/06/26 04:04:07;;;;;;;23.98;21.38;;;16.20;99.90;;;;;;4779144;29;20066;-76
2021/06/26 04:06:33;;;;;;;26.05;20.80;;;16.30;99.90;;;;;;4748906;29;20064;-76
2021/06/26 04:09:00;;;;;;;24.08;20.15;;;16.30;99.90;;;;;;4777294;29;20051;-75
2021/06/26 04:11:26;;;;;;;24.73;20.88;;;16.30;99.90;;;;;;4781503;29;20062;-75
2021/06/26 04:13:52;;;;;;;24.52;20.77;;;16.40;99.90;;;;;;4780062;29;20051;-76
2021/06/26 04:16:19;;;;;;;24.92;20.33;;;16.40;99.90;;;;;;4776631;29;20071;-75
2021/06/26 04:18:45;;;;;;;23.35;20.17;;;16.50;99.90;;;;;;4771676;29;20407;-75
2021/06/26 04:21:12;;;;;;;24.70;20.98;;;16.60;99.90;;;;;;4770234;29;20059;-76
2021/06/26 04:23:38;;;;;;;25.35;21.10;;;16.60;99.90;;;;;;4771712;29;20067;-75
2021/06/26 04:26:05;;;;;;;24.08;20.20;;;16.70;99.90;;;;;;4774289;29;20035;-75
2021/06/26 04:28:32;;;;;;;27.20;20.30;;;16.70;99.90;;;;;;4775381;29;20043;-75
2021/06/26 04:31:00;;;;;;;22.83;18.60;;;16.70;99.90;;;;;;4773209;29;20051;-77
2021/06/26 04:33:27;;;;;;;23.50;19.60;;;16.70;99.90;;;;;;4767307;29;20054;-76
2021/06/26 04:35:54;;;;;;;22.88;19.00;;;16.70;99.90;;;;;;4773921;29;20047;-75
2021/06/26 04:38:23;;;;;;;24.38;20.17;;;16.80;99.90;;;;;;4767764;29;20058;-75
2021/06/26 04:40:51;;;;;;;24.98;21.40;;;16.80;99.90;;;;;;4773879;29;20059;-75
2021/06/26 04:43:19;;;;;;;23.40;18.83;;;16.80;99.90;;;;;;4757662;29;20480;-74
2021/06/26 04:45:47;;;;;;;22.58;19.10;;;16.80;99.90;;;;;;4772023;29;20048;-73
2021/06/26 04:48:17;;;;;;;23.73;19.15;;;16.80;99.90;;;;;;4773239;29;20040;-73
2021/06/26 04:50:45;;;;;;;21.67;18.98;;;16.90;99.90;;;;;;4777232;29;20051;-73
2021/06/26 04:53:12;;;;;;;22.75;19.35;;;16.90;99.90;;;;;;4780286;29;20050;-74
2021/06/26 04:55:38;;;;;;;23.05;19.25;;;17.00;99.90;;;;;;4764092;29;20479;-74
2021/06/26 04:58:05;;;;;;;20.60;17.45;;;17.00;99.90;;;;;;4775836;29;20047;-74
2021/06/26 05:00:32;;;;;;;20.25;16.55;;;17.10;99.90;;;;;;4781536;29;20043;-74
2021/06/26 05:02:58;;;;;;;21.90;18.40;;;17.10;99.90;;;;;;4780746;29;20055;-74
2021/06/26 05:05:25;;;;;;;24.00;19.05;;;17.20;99.90;;;;;;4761512;29;20043;-74
2021/06/26 05:07:51;;;;;;;22.35;19.95;;;17.20;99.90;;;;;;4776646;29;20384;-74
2021/06/26 05:10:19;;;;;;;23.98;20.70;;;17.30;99.90;;;;;;4769373;29;20914;-74
2021/06/26 05:12:45;;;;;;;26.55;20.05;;;17.30;99.90;;;;;;4769210;29;20387;-74
2021/06/26 05:15:13;;;;;;;27.77;22.55;;;17.30;99.90;;;;;;4779349;29;20051;-74
2021/06/26 05:17:39;;;;;;;25.85;21.02;;;17.30;99.90;;;;;;4777966;29;20043;-74
2021/06/26 05:20:06;;;;;;;23.42;20.83;;;17.40;99.90;;;;;;4776817;29;20047;-74
2021/06/26 05:22:33;;;;;;;29.17;21.55;;;17.40;99.90;;;;;;4780239;29;20066;-74
2021/06/26 05:24:59;;;;;;;24.40;20.52;;;17.40;99.90;;;;;;4779379;29;20062;-74
2021/06/26 05:27:26;;;;;;;23.27;19.02;;;17.40;99.90;;;;;;4763853;29;20051;-74
2021/06/26 05:29:52;;;;;;;24.60;20.95;;;17.50;99.90;;;;;;4780480;29;20055;-74
2021/06/26 05:32:19;;;;;;;22.80;19.40;;;17.50;99.90;;;;;;4777726;29;20058;-74
2021/06/26 05:34:45;;;;;;;25.27;20.75;;;17.60;99.90;;;;;;4777053;29;20107;-74
2021/06/26 05:37:12;;;;;;;23.77;20.48;;;17.60;99.90;;;;;;4779155;29;20433;-74
2021/06/26 05:39:39;;;;;;;21.55;18.50;;;17.70;99.90;;;;;;4762277;29;20062;-74
2021/06/26 05:42:05;;;;;;;24.98;19.10;;;17.80;99.90;;;;;;4778220;29;20408;-74
2021/06/26 05:44:32;;;;;;;24.10;20.55;;;17.80;99.90;;;;;;4779557;29;20047;-74
2021/06/26 05:46:58;;;;;;;23.25;19.90;;;17.90;99.90;;;;;;4780097;29;20050;-73
2021/06/26 05:49:25;;;;;;;23.08;18.58;;;18.00;99.90;;;;;;4776568;29;20734;-73
2021/06/26 05:51:51;;;;;;;25.40;20.75;;;18.00;99.90;;;;;;4782984;29;20042;-73
2021/06/26 05:54:18;;;;;;;27.50;22.73;;;18.20;99.90;;;;;;4779421;29;20043;-74
2021/06/26 05:56:47;;;;;;;23.38;20.30;;;18.20;99.90;;;;;;4776526;29;20515;-74
2021/06/26 05:59:14;;;;;;;29.98;23.00;;;18.30;99.90;;;;;;4778481;29;20059;-74
2021/06/26 06:01:41;;;;;;;28.15;22.48;;;18.30;99.90;;;;;;4780440;29;20054;-74
2021/06/26 06:04:08;;;;;;;25.88;22.02;;;18.40;99.90;;;;;;4779741;29;20063;-74
2021/06/26 06:06:35;;;;;;;26.85;22.33;;;18.30;99.90;;;;;;4779761;29;20133;-74
2021/06/26 06:09:03;;;;;;;28.73;22.67;;;18.30;99.90;;;;;;4762652;29;20059;-74
2021/06/26 06:11:30;;;;;;;21.95;18.55;;;18.40;99.90;;;;;;4785699;29;20077;-74
2021/06/26 06:13:57;;;;;;;24.50;21.10;;;18.40;99.90;;;;;;4778652;29;20046;-74
2021/06/26 06:16:24;;;;;;;24.65;21.80;;;18.50;99.90;;;;;;4777898;29;20047;-74
2021/06/26 06:18:51;;;;;;;28.30;22.20;;;18.60;99.90;;;;;;4763212;29;20054;-74
2021/06/26 06:21:18;;;;;;;22.95;20.20;;;18.70;99.90;;;;;;4779158;29;20075;-74
2021/06/26 06:23:45;;;;;;;27.80;23.00;;;18.70;99.90;;;;;;4778817;29;20055;-74
2021/06/26 06:26:12;;;;;;;29.98;25.15;;;18.90;99.90;;;;;;4779989;29;20415;-74
2021/06/26 06:28:38;;;;;;;29.77;23.90;;;19.00;99.90;;;;;;4777704;29;20031;-76
2021/06/26 06:31:05;;;;;;;32.03;25.88;;;19.30;99.90;;;;;;4765148;29;20064;-76
2021/06/26 06:33:32;;;;;;;28.60;23.58;;;19.50;99.90;;;;;;4773385;29;20059;-75
2021/06/26 06:36:00;;;;;;;25.23;21.98;;;19.60;99.90;;;;;;4773873;29;20113;-75
2021/06/26 06:38:27;;;;;;;24.67;21.30;;;19.80;99.90;;;;;;4776381;29;20059;-75
2021/06/26 06:40:53;;;;;;;25.00;21.10;;;19.90;99.90;;;;;;4779353;29;20066;-76
2021/06/26 06:43:20;;;;;;;20.05;16.48;;;20.00;99.80;;;;;;4774817;29;20435;-75
2021/06/26 06:45:47;;;;;;;26.35;21.60;;;20.00;99.80;;;;;;4771732;29;20042;-75
2021/06/26 06:48:13;;;;;;;21.50;18.58;;;20.10;99.60;;;;;;4770019;29;20039;-75
2021/06/26 06:50:40;;;;;;;20.70;18.48;;;20.20;99.20;;;;;;4773993;29;20047;-75
2021/06/26 06:53:07;;;;;;;18.42;16.42;;;20.30;99.00;;;;;;4774910;29;20404;-75
2021/06/26 06:55:33;;;;;;;22.13;19.13;;;20.50;98.70;;;;;;4778427;29;20046;-75
2021/06/26 06:58:00;;;;;;;20.20;17.75;;;20.60;98.40;;;;;;4776283;29;20046;-78
2021/06/26 07:00:27;;;;;;;19.23;17.17;;;20.80;98.00;;;;;;4779686;29;20038;-78
2021/06/26 07:02:53;;;;;;;20.13;17.67;;;20.90;97.70;;;;;;4751841;29;20054;-79
2021/06/26 07:05:20;;;;;;;18.55;16.52;;;21.00;97.30;;;;;;4760713;29;20067;-78
2021/06/26 07:07:46;;;;;;;18.15;16.35;;;21.10;97.20;;;;;;4765724;29;20078;-77
2021/06/26 07:10:13;;;;;;;18.25;16.25;;;21.20;96.70;;;;;;4779446;29;20075;-78
2021/06/26 07:12:40;;;;;;;17.92;16.05;;;21.40;96.10;;;;;;4782169;29;20059;-77
2021/06/26 07:15:07;;;;;;;18.23;16.33;;;21.50;96.00;;;;;;4778978;29;20062;-77
2021/06/26 07:17:33;;;;;;;17.75;15.18;;;21.60;95.80;;;;;;4776389;29;20074;-77
2021/06/26 07:20:00;;;;;;;16.52;14.90;;;21.80;95.80;;;;;;4775740;29;20043;-77
2021/06/26 07:22:26;;;;;;;16.35;14.73;;;22.00;95.50;;;;;;4777105;29;20060;-80
2021/06/26 07:24:53;;;;;;;15.80;14.07;;;22.10;95.50;;;;;;4777932;29;20051;-79
2021/06/26 07:27:19;;;;;;;16.20;13.65;;;22.30;94.70;;;;;;4768359;29;20051;-80
2021/06/26 07:29:46;;;;;;;16.85;13.50;;;22.40;94.60;;;;;;4782066;29;20522;-80
2021/06/26 07:32:12;;;;;;;16.83;14.30;;;22.50;94.40;;;;;;4778274;29;20055;-79
2021/06/26 07:34:40;;;;;;;17.05;13.32;;;22.60;94.20;;;;;;4771385;29;20070;-80
2021/06/26 07:37:06;;;;;;;16.80;15.02;;;22.70;94.10;;;;;;4766638;29;20055;-79
2021/06/26 07:39:33;;;;;;;14.90;13.40;;;22.90;94.10;;;;;;4782873;29;20055;-79
2021/06/26 07:42:01;;;;;;;14.98;13.48;;;23.10;94.10;;;;;;4770634;29;20078;-79
2021/06/26 07:44:27;;;;;;;14.82;13.40;;;23.30;93.50;;;;;;4777605;29;20047;-80
2021/06/26 07:46:54;;;;;;;13.93;12.65;;;23.30;92.40;;;;;;4781938;29;20051;-78
2021/06/26 07:49:21;;;;;;;15.20;12.68;;;23.40;92.60;;;;;;4763426;29;20055;-79
2021/06/26 07:51:48;;;;;;;13.13;11.85;;;23.40;92.00;;;;;;4774093;29;21204;-79
2021/06/26 07:54:16;;;;;;;11.75;10.55;;;23.40;91.60;;;;;;4783971;29;20070;-82
2021/06/26 07:56:44;;;;;;;15.77;13.95;;;23.50;91.40;;;;;;4777314;29;20043;-79
2021/06/26 07:59:11;;;;;;;12.25;11.00;;;23.50;91.30;;;;;;4783275;29;20047;-80
2021/06/26 08:01:37;;;;;;;12.75;10.15;;;23.60;91.20;;;;;;4772390;29;20066;-80
2021/06/26 08:04:04;;;;;;;11.70;10.50;;;23.70;91.10;;;;;;4754562;29;20088;-80
2021/06/26 08:06:32;;;;;;;14.65;12.85;;;23.80;90.80;;;;;;4781597;29;20043;-79
2021/06/26 08:08:58;;;;;;;13.52;12.23;;;24.00;90.20;;;;;;4787128;29;20073;-82
2021/06/26 08:11:26;;;;;;;13.43;12.13;;;24.00;90.20;;;;;;4788844;29;20518;-79
2021/06/26 08:13:54;;;;;;;13.57;12.27;;;24.20;90.10;;;;;;4778200;29;20055;-78
2021/06/26 08:16:20;;;;;;;13.20;11.90;;;24.20;89.60;;;;;;4769342;29;20043;-78
2021/06/26 08:18:46;;;;;;;13.65;10.13;;;24.30;89.60;;;;;;4777014;29;20054;-78
2021/06/26 08:21:13;;;;;;;11.15;10.02;;;24.40;89.10;;;;;;4776794;29;20165;-78
2021/06/26 08:23:40;;;;;;;10.68;9.55;;;24.50;89.00;;;;;;4778646;29;20089;-79
2021/06/26 08:26:06;;;;;;;11.65;10.55;;;24.60;89.30;;;;;;4777892;29;20054;-78
2021/06/26 08:28:33;;;;;;;13.75;10.65;;;24.80;87.90;;;;;;4762284;29;20051;-76
2021/06/26 08:30:59;;;;;;;12.57;11.27;;;24.90;87.10;;;;;;4760914;29;20055;-76
2021/06/26 08:33:26;;;;;;;12.02;10.60;;;25.00;85.90;;;;;;4778918;29;20047;-75
2021/06/26 08:35:52;;;;;;;12.40;11.20;;;25.00;85.50;;;;;;4764067;29;20138;-76
2021/06/26 08:38:19;;;;;;;12.98;11.65;;;25.20;85.60;;;;;;4774896;29;20050;-76
2021/06/26 08:40:47;;;;;;;13.00;11.70;;;25.30;85.10;;;;;;4778671;29;20043;-76
2021/06/26 08:43:13;;;;;;;13.35;12.05;;;25.30;84.80;;;;;;4777682;29;20809;-76
2021/06/26 08:45:40;;;;;;;13.93;11.85;;;25.40;84.80;;;;;;4765264;30;20401;-77
2021/06/26 08:48:06;;;;;;;12.32;10.63;;;25.50;83.60;;;;;;4762920;29;20267;-76
2021/06/26 08:50:33;;;;;;;10.82;9.73;;;25.60;83.50;;;;;;4780362;29;20055;-76
2021/06/26 08:53:00;;;;;;;11.52;10.35;;;25.60;82.60;;;;;;4779721;29;20043;-76
2021/06/26 08:55:26;;;;;;;9.57;8.45;;;25.60;82.30;;;;;;4780105;29;20042;-76
2021/06/26 08:57:53;;;;;;;11.00;10.00;;;25.70;82.00;;;;;;4777346;29;20046;-77
2021/06/26 09:00:25;;;;;;;10.90;9.80;;;25.70;81.70;;;;;;4766542;29;20035;-78
2021/06/26 09:03:12;;;;;;;10.10;9.07;;;25.80;81.00;;;;;;4772104;29;20052;-77
2021/06/26 09:05:40;;;;;;;10.57;9.48;;;25.90;80.90;;;;;;4763666;29;20051;-80
2021/06/26 09:08:14;;;;;;;11.63;10.45;;;26.10;81.00;;;;;;4781596;29;20581;-78
2021/06/26 09:10:43;;;;;;;11.80;10.60;;;26.20;79.70;;;;;;4780242;29;20062;-79
2021/06/26 09:13:25;;;;;;;13.25;9.70;;;26.30;79.20;;;;;;4780327;29;20039;-78
2021/06/26 09:16:05;;;;;;;11.70;10.68;;;26.30;79.50;;;;;;4779272;29;20043;-77
2021/06/26 09:18:40;;;;;;;11.35;10.25;;;26.50;79.10;;;;;;4778928;29;20047;-78
2021/06/26 09:21:28;;;;;;;10.70;9.52;;;26.60;78.20;;;;;;4777574;29;20091;-79
2021/06/26 09:24:07;;;;;;;12.88;11.57;;;26.70;78.30;;;;;;4777873;29;20047;-78
2021/06/26 09:26:41;;;;;;;11.25;9.48;;;26.70;76.80;;;;;;4777511;29;20050;-80
2021/06/26 09:29:17;;;;;;;9.10;8.20;;;26.70;76.90;;;;;;4775580;29;20047;-79
2021/06/26 09:31:57;;;;;;;10.40;9.40;;;26.80;76.90;;;;;;4777348;29;20027;-78
2021/06/26 09:34:39;;;;;;;9.88;8.50;;;26.90;76.20;;;;;;4763352;29;20058;-78
2021/06/26 09:37:18;;;;;;;14.02;12.35;;;27.00;75.80;;;;;;4791469;29;20062;-77
2021/06/26 09:39:45;;;;;;;9.68;8.55;;;27.10;75.20;;;;;;4761894;29;20047;-78
2021/06/26 09:42:16;;;;;;;11.57;10.30;;;27.20;75.30;;;;;;4787137;29;20035;-79
2021/06/26 09:44:55;;;;;;;12.60;10.38;;;27.30;74.80;;;;;;4776360;29;20411;-79
2021/06/26 09:47:33;;;;;;;8.38;7.28;;;27.40;74.70;;;;;;4783430;29;20399;-80
2021/06/26 09:50:19;;;;;;;9.32;8.27;;;27.50;74.40;;;;;;4780877;29;20489;-79
2021/06/26 09:52:55;;;;;;;9.05;8.25;;;27.70;74.20;;;;;;4781020;29;20055;-78
2021/06/26 09:55:26;;;;;;;10.43;9.43;;;27.80;73.30;;;;;;4779855;29;20035;-77
2021/06/26 09:57:55;;;;;;;9.90;8.82;;;27.90;73.00;;;;;;4778673;29;20055;-81
2021/06/26 10:00:27;;;;;;;10.55;9.48;;;27.90;72.40;;;;;;4776992;29;20512;-79
2021/06/26 10:02:54;;;;;;;;;;;28.00;72.00;;;;;;4774520;29;20430;-79
2021/06/26 10:05:21;;;;;;;9.65;8.82;;;28.10;71.90;;;;;;4778478;29;19932;-79
2021/06/26 10:07:51;;;;;;;10.77;9.70;;;28.20;71.40;;;;;;4778772;29;20423;-79
2021/06/26 10:10:25;;;;;;;8.98;8.10;;;28.40;71.10;;;;;;4780435;29;20048;-80
2021/06/26 10:12:53;;;;;;;11.15;9.95;;;28.50;70.70;;;;;;4780950;29;20050;-79
2021/06/26 10:15:23;;;;;;;8.55;7.75;;;28.60;70.00;;;;;;4778660;29;20423;-79
2021/06/26 10:17:50;;;;;;;10.35;9.43;;;28.70;69.60;;;;;;4746335;29;20048;-79
2021/06/26 10:20:22;;;;;;;12.25;10.00;;;28.80;68.50;;;;;;4783423;29;20059;-79
2021/06/26 10:22:54;;;;;;;10.63;9.63;;;28.80;67.30;;;;;;4777409;29;20042;-79
2021/06/26 10:25:21;;;;;;;10.45;9.35;;;28.90;67.70;;;;;;4779391;29;20039;-79
2021/06/26 10:27:48;;;;;;;8.75;7.85;;;29.00;66.90;;;;;;4776382;29;20054;-80
2021/06/26 10:30:21;;;;;;;10.27;9.27;;;29.00;66.00;;;;;;4765333;29;20055;-79
2021/06/26 10:32:56;;;;;;;12.40;11.10;;;29.10;65.70;;;;;;4774120;29;20682;-79
2021/06/26 10:35:27;;;;;;;9.80;8.75;;;29.20;65.70;;;;;;4732946;29;20047;-79
2021/06/26 10:38:13;;;;;;;10.40;8.52;;;29.40;65.20;;;;;;4762826;29;20045;-79
2021/06/26 10:40:51;;;;;;;11.70;10.13;;;29.60;64.90;;;;;;4782675;29;20063;-79
2021/06/26 10:43:29;;;;;;;10.50;9.00;;;29.90;63.20;;;;;;4775258;29;20582;-79
2021/06/26 10:46:13;;;;;;;9.63;8.73;;;29.90;63.20;;;;;;4778354;29;20039;-80
2021/06/26 10:49:02;;;;;;;9.43;8.52;;;29.90;62.10;;;;;;4777129;29;20042;-80
2021/06/26 10:51:38;;;;;;;6.95;6.30;;;30.10;61.20;;;;;;4773065;29;20044;-80
2021/06/26 10:54:18;;;;;;;11.73;8.65;;;30.20;61.00;;;;;;4769041;29;20047;-79
2021/06/26 10:56:48;;;;;;;9.32;8.52;;;30.40;60.90;;;;;;4780469;29;20050;-80
2021/06/26 10:59:19;;;;;;;10.05;8.57;;;30.40;60.50;;;;;;4775124;29;20050;-80
2021/06/26 11:01:53;;;;;;;9.32;8.15;;;30.50;60.60;;;;;;4780361;29;20043;-80
2021/06/26 11:04:20;;;;;;;10.30;9.23;;;30.60;59.10;;;;;;4778099;29;20039;-81
2021/06/26 11:06:50;;;;;;;8.68;7.88;;;30.40;58.60;;;;;;4778293;29;20470;-80
2021/06/26 11:09:17;;;;;;;11.63;8.60;;;30.50;58.70;;;;;;4777097;29;20051;-80
2021/06/26 11:11:48;;;;;;;9.50;8.73;;;30.60;58.10;;;;;;4778440;29;20062;-80
2021/06/26 11:14:24;;;;;;;9.77;8.82;;;30.40;57.30;;;;;;4779982;29;20051;-79
2021/06/26 11:16:53;;;;;;;9.73;8.73;;;30.00;56.70;;;;;;4775325;29;20066;-80
2021/06/26 11:19:22;;;;;;;9.60;8.45;;;29.70;57.10;;;;;;4774132;29;20043;-80
2021/06/26 11:21:51;;;;;;;10.00;8.93;;;29.60;58.40;;;;;;4780929;29;20088;-83
2021/06/26 11:24:19;;;;;;;8.60;7.78;;;30.00;58.20;;;;;;4774133;29;20039;-80
2021/06/26 11:26:47;;;;;;;9.93;9.02;;;30.30;56.70;;;;;;4778947;29;20226;-80
2021/06/26 11:29:25;;;;;;;8.98;8.13;;;30.40;55.70;;;;;;4773936;29;20043;-78
2021/06/26 11:31:52;;;;;;;8.80;7.90;;;30.70;56.00;;;;;;4784631;29;20043;-83
2021/06/26 11:34:18;;;;;;;12.90;9.60;;;31.30;55.40;;;;;;4780327;29;20052;-82
2021/06/26 11:37:06;;;;;;;10.63;9.63;;;31.30;54.40;;;;;;4785154;29;20043;-82
2021/06/26 11:39:36;;;;;;;9.20;8.43;;;31.10;53.80;;;;;;4781632;29;20049;-79
2021/06/26 11:42:17;;;;;;;9.63;8.77;;;31.00;54.00;;;;;;4778308;29;20043;-79
2021/06/26 11:44:44;;;;;;;8.73;7.82;;;31.30;54.30;;;;;;4782025;29;20035;-84
2021/06/26 11:47:12;;;;;;;15.60;9.48;;;31.60;53.20;;;;;;4773860;29;20048;-81
2021/06/26 11:49:41;;;;;;;10.30;9.20;;;31.60;52.10;;;;;;4782647;29;20058;-80
2021/06/26 11:52:11;;;;;;;16.70;9.80;;;31.30;52.20;;;;;;4785875;29;20391;-80
2021/06/26 11:54:38;;;;;;;9.18;8.18;;;31.40;52.20;;;;;;4784756;29;21715;-80
2021/06/26 11:57:08;;;;;;;10.38;9.48;;;31.80;52.00;;;;;;4781307;29;20050;-80
2021/06/26 11:59:41;;;;;;;8.02;7.32;;;32.00;49.90;;;;;;4780132;29;21778;-80
2021/06/26 12:02:09;;;;;;;10.07;9.07;;;31.80;50.00;;;;;;4785802;29;20395;-80
2021/06/26 12:04:38;;;;;;;8.40;7.60;;;31.40;51.20;;;;;;4784118;29;20142;-80
2021/06/26 12:07:12;;;;;;;8.52;7.72;;;31.10;52.10;;;;;;4766232;29;20063;-80
2021/06/26 12:09:40;;;;;;;10.57;9.60;;;31.00;52.20;;;;;;4781328;29;20051;-80
2021/06/26 12:12:07;;;;;;;9.55;8.65;;;30.90;52.30;;;;;;4783186;29;20594;-80
2021/06/26 12:14:34;;;;;;;9.75;8.57;;;30.80;52.70;;;;;;4787168;29;20055;-80
2021/06/26 12:17:03;;;;;;;9.25;8.38;;;30.70;53.00;;;;;;4781323;29;20058;-80
2021/06/26 12:19:30;;;;;;;10.10;9.05;;;30.60;53.40;;;;;;4779515;29;20058;-80
2021/06/26 12:21:57;;;;;;;10.18;9.27;;;30.40;52.90;;;;;;4789858;29;20042;-80
2021/06/26 12:24:35;;;;;;;9.48;8.57;;;30.20;53.20;;;;;;4770396;29;20046;-80
2021/06/26 12:27:06;;;;;;;10.82;9.88;;;30.00;53.90;;;;;;4779324;29;20425;-80
2021/06/26 12:29:34;;;;;;;9.90;9.02;;;29.80;53.90;;;;;;4781271;29;20808;-80
2021/06/26 12:32:02;;;;;;;11.55;10.40;;;29.70;54.30;;;;;;4787121;29;20055;-80
2021/06/26 12:34:28;;;;;;;13.98;10.73;;;29.60;54.50;;;;;;4782198;29;20738;-80
2021/06/26 12:36:57;;;;;;;10.23;9.23;;;29.50;54.20;;;;;;4779375;29;20428;-80